Time;durP1;ratioP1;P1;durP2;ratioP2;P2;SDS_P1;SDS_P2;PMS_P1;PMS_P2;Temp;Humidity;BMP_temperature;BMP_pressure;BME280_temperature;BME280_humidity;BME280_pressure;Samples;Min_cycle;Max_cycle;Signal;HPM_P1;HPM_P2
2021/12/28 00:00:22;;;;;;;23.33;10.77;;;;;;;8.08;83.23;95873.72;5114887;28;20023;-67
2021/12/28 00:02:49;;;;;;;17.67;8.18;;;;;;;8.06;83.24;95881.59;5114877;28;20076;-66
2021/12/28 00:05:15;;;;;;;14.23;8.45;;;;;;;8.05;83.04;95879.03;5114703;28;20036;-66
2021/12/28 00:07:41;;;;;;;8.95;5.10;;;;;;;8.00;82.29;95889.63;5114694;28;20442;-70
2021/12/28 00:10:11;;;;;;;11.63;5.47;;;;;;;7.82;82.20;95892.03;5114658;28;20020;-67
2021/12/28 00:12:39;;;;;;;8.25;4.55;;;;;;;7.67;82.80;95900.41;5114497;28;20464;-64
2021/12/28 00:18:04;;;;;;;6.07;5.00;;;;;;;7.31;83.57;95896.47;5114523;28;20381;-62
2021/12/28 00:20:40;;;;;;;8.77;5.10;;;;;;;7.26;83.82;95895.78;5114505;28;20019;-64
2021/12/28 00:23:38;;;;;;;7.38;4.57;;;;;;;7.19;83.67;95897.72;5113186;28;20032;-62
2021/12/28 00:26:06;;;;;;;7.35;4.45;;;;;;;7.16;83.46;95896.09;5114462;28;20039;-70
2021/12/28 00:28:32;;;;;;;11.90;5.43;;;;;;;7.12;83.81;95902.31;5114435;28;20023;-65
2021/12/28 00:30:58;;;;;;;8.70;5.03;;;;;;;7.19;83.64;95896.00;5114198;28;20420;-63
2021/12/28 00:33:25;;;;;;;14.80;5.00;;;;;;;7.15;83.48;95904.81;5114123;28;20019;-64
2021/12/28 00:35:52;;;;;;;6.93;5.05;;;;;;;7.02;83.76;95898.34;5114050;28;20019;-67
2021/12/28 00:38:23;;;;;;;10.23;4.85;;;;;;;6.97;84.45;95901.09;5114128;28;20050;-67
2021/12/28 00:40:52;;;;;;;9.48;4.75;;;;;;;7.00;84.42;95905.31;5114250;28;20418;-66
2021/12/28 00:43:18;;;;;;;8.95;5.65;;;;;;;7.01;84.18;95909.66;5114184;28;20023;-65
2021/12/28 00:45:44;;;;;;;6.57;4.10;;;;;;;6.94;84.00;95898.59;5113931;28;20016;-66
2021/12/28 00:48:11;;;;;;;7.22;4.68;;;;;;;6.97;83.42;95895.03;5113897;28;20047;-68
2021/12/28 00:50:37;;;;;;;9.75;5.30;;;;;;;6.97;83.43;95906.28;5113892;28;20049;-64
2021/12/28 00:53:04;;;;;;;11.63;5.35;;;;;;;6.94;83.29;95915.06;5113878;28;20027;-63
2021/12/28 00:55:30;;;;;;;7.13;5.28;;;;;;;6.94;83.10;95904.66;5113831;28;20077;-65
2021/12/28 00:57:56;;;;;;;11.70;5.60;;;;;;;6.95;82.87;95914.13;5112599;28;20461;-70
2021/12/28 01:00:27;;;;;;;9.60;6.68;;;;;;;6.99;82.41;95914.91;5112432;28;20490;-65
2021/12/28 01:02:54;;;;;;;13.05;6.70;;;;;;;6.95;82.35;95910.69;5113693;28;20153;-65
2021/12/28 01:05:20;;;;;;;12.77;6.97;;;;;;;6.93;81.92;95902.94;5113606;28;20020;-66
2021/12/28 01:07:46;;;;;;;13.30;8.40;;;;;;;6.90;82.10;95903.06;5113711;28;20411;-64
2021/12/28 01:10:17;;;;;;;6.60;5.25;;;;;;;6.91;82.03;95902.16;5113634;28;20053;-67
2021/12/28 01:12:43;;;;;;;15.32;7.22;;;;;;;6.93;82.46;95907.31;5113509;28;20028;-67
2021/12/28 01:15:10;;;;;;;11.45;4.85;;;;;;;6.92;82.67;95900.38;5113596;28;20035;-69
2021/12/28 01:17:37;;;;;;;9.10;4.47;;;;;;;6.85;82.74;95894.53;5113553;28;20156;-68
2021/12/28 01:20:05;;;;;;;7.47;4.05;;;;;;;6.84;82.79;95898.06;5113762;28;20118;-68
2021/12/28 01:22:31;;;;;;;11.35;4.70;;;;;;;6.80;82.27;95891.25;5112222;28;20427;-64
2021/12/28 01:24:57;;;;;;;5.57;4.72;;;;;;;6.73;82.34;95885.41;5114437;28;20585;-61
2021/12/28 01:27:22;;;;;;;9.70;6.05;;;;;;;6.74;81.93;95896.66;5117778;28;20114;-69
2021/12/28 01:29:48;;;;;;;16.55;6.22;;;;;;;6.73;82.23;95885.41;5118003;27;20030;-70
2021/12/28 01:32:14;;;;;;;13.35;6.22;;;;;;;6.72;82.36;95893.25;5117709;28;20363;-70
2021/12/28 01:34:39;;;;;;;8.60;5.68;;;;;;;6.73;82.14;95889.75;5117674;28;20523;-69
2021/12/28 01:37:05;;;;;;;11.30;5.28;;;;;;;6.74;82.15;95899.28;5117591;28;20416;-65
2021/12/28 01:39:31;;;;;;;11.10;5.70;;;;;;;6.74;81.76;95896.66;5117643;28;20022;-70
2021/12/28 01:41:56;;;;;;;10.43;7.30;;;;;;;6.76;81.95;95905.25;5117570;28;20458;-66
2021/12/28 01:44:22;;;;;;;14.50;7.18;;;;;;;6.76;82.20;95902.66;5117520;28;20020;-64
2021/12/28 01:46:48;;;;;;;11.35;6.30;;;;;;;6.75;82.46;95903.56;5117420;28;20026;-68
2021/12/28 01:49:14;;;;;;;11.95;5.45;;;;;;;6.75;82.83;95899.22;5117474;28;20103;-67
2021/12/28 01:51:39;;;;;;;11.10;5.10;;;;;;;6.73;82.88;95900.16;5117203;28;20099;-65
2021/12/28 01:54:06;;;;;;;9.63;5.45;;;;;;;6.73;83.19;95901.00;5117280;28;20028;-68
2021/12/28 01:56:38;;;;;;;7.88;5.25;;;;;;;6.79;83.20;95899.94;5116119;28;20052;-65
2021/12/28 01:59:05;;;;;;;12.13;6.30;;;;;;;6.72;83.16;95899.31;5117180;28;20107;-68
2021/12/28 02:01:32;;;;;;;21.48;8.23;;;;;;;6.72;83.54;95886.31;5117316;28;20030;-67
2021/12/28 02:03:58;;;;;;;14.20;6.30;;;;;;;6.71;84.08;95895.00;5117253;28;20015;-71
2021/12/28 02:06:25;;;;;;;13.73;7.28;;;;;;;6.73;84.03;95887.16;5117119;28;20369;-67
2021/12/28 02:08:54;;;;;;;9.02;5.50;;;;;;;6.65;84.42;95890.03;5116967;28;20366;-67
2021/12/28 02:11:20;;;;;;;6.80;4.80;;;;;;;6.65;84.56;95890.84;5116887;28;20370;-70
2021/12/28 02:13:46;;;;;;;11.65;5.80;;;;;;;6.57;84.77;95880.69;5116789;28;20565;-67
2021/12/28 02:16:12;;;;;;;15.50;6.78;;;;;;;6.59;84.94;95877.22;5116933;28;20156;-67
2021/12/28 02:18:38;;;;;;;15.70;8.43;;;;;;;6.63;84.86;95889.22;5117036;28;20027;-70
2021/12/28 02:21:06;;;;;;;17.98;8.38;;;;;;;6.60;86.08;95876.31;5116846;28;20027;-69
2021/12/28 02:23:32;;;;;;;16.08;8.57;;;;;;;6.65;86.85;95877.84;5116437;28;20042;-61
2021/12/28 02:25:57;;;;;;;12.57;7.38;;;;;;;6.66;86.46;95876.97;5116754;28;20505;-68
2021/12/28 02:28:24;;;;;;;14.45;8.57;;;;;;;6.72;86.36;95881.13;5116742;28;20027;-68
2021/12/28 02:30:52;;;;;;;13.88;8.02;;;;;;;6.76;85.98;95880.09;5116619;28;20380;-67
2021/12/28 02:33:20;;;;;;;9.65;4.45;;;;;;;6.73;85.13;95876.75;5115135;28;20035;-65
2021/12/28 02:35:46;;;;;;;17.67;6.50;;;;;;;6.68;84.85;95877.75;5116429;28;20016;-69
2021/12/28 02:38:12;;;;;;;18.85;8.02;;;;;;;6.63;85.36;95873.63;5115824;28;20039;-69
2021/12/28 02:40:40;;;;;;;11.93;6.10;;;;;;;6.62;85.91;95872.75;5116664;27;20130;-71
2021/12/28 02:43:08;;;;;;;9.23;6.53;;;;;;;6.56;86.36;95876.41;5116555;27;20110;-66
2021/12/28 02:45:38;;;;;;;7.60;4.88;;;;;;;6.57;86.02;95875.50;5116292;28;20024;-63
2021/12/28 02:48:06;;;;;;;11.00;4.57;;;;;;;6.53;85.45;95876.50;5116208;28;20023;-68
2021/12/28 02:50:42;;;;;;;8.93;3.92;;;;;;;6.44;85.04;95866.41;5116256;28;20028;-64
2021/12/28 02:53:08;;;;;;;6.70;3.72;;;;;;;6.34;83.94;95859.81;5116397;28;20062;-65
2021/12/28 02:55:36;;;;;;;5.65;3.55;;;;;;;6.30;83.12;95866.88;5115058;28;20020;-68
2021/12/28 02:58:09;;;;;;;9.75;3.25;;;;;;;6.26;83.00;95863.50;5115991;28;20496;-66
2021/12/28 03:00:49;;;;;;;11.00;4.68;;;;;;;6.24;82.95;95867.06;5116117;28;20462;-66
2021/12/28 03:03:21;;;;;;;5.40;4.50;;;;;;;6.20;82.81;95868.88;5115978;28;20381;-68
2021/12/28 03:05:49;;;;;;;7.78;4.47;;;;;;;6.20;82.56;95871.47;5115890;28;20031;-64
2021/12/28 03:08:17;;;;;;;8.52;4.90;;;;;;;6.13;82.74;95870.84;5115835;28;20027;-68
2021/12/28 03:10:44;;;;;;;12.20;4.95;;;;;;;6.11;82.86;95876.97;5116016;28;20533;-67
2021/12/28 03:13:14;;;;;;;9.45;6.82;;;;;;;6.10;82.91;95875.25;5115787;28;20036;-68
2021/12/28 03:15:40;;;;;;;11.48;5.53;;;;;;;6.10;82.44;95876.13;5115875;28;20473;-67
2021/12/28 03:18:05;;;;;;;9.85;5.15;;;;;;;5.98;82.10;95879.91;5115776;28;20030;-67
2021/12/28 03:20:31;;;;;;;8.27;5.20;;;;;;;5.92;82.42;95880.09;5115694;28;20069;-66
2021/12/28 03:22:57;;;;;;;11.27;5.30;;;;;;;5.87;82.04;95874.22;5115469;28;20034;-66
2021/12/28 03:25:22;;;;;;;11.32;4.75;;;;;;;5.75;82.25;95878.84;5114046;28;20048;-67
2021/12/28 03:27:48;;;;;;;6.97;5.65;;;;;;;5.75;81.87;95878.00;5115527;28;20491;-63
2021/12/28 03:30:16;;;;;;;6.68;4.47;;;;;;;5.68;82.05;95875.59;5115767;28;20022;-66
2021/12/28 03:32:42;;;;;;;8.05;5.20;;;;;;;5.54;82.54;95875.97;5115358;28;20027;-64
2021/12/28 03:35:10;;;;;;;10.82;5.18;;;;;;;5.52;82.47;95876.94;5115330;28;20020;-65
2021/12/28 03:37:36;;;;;;;6.13;4.50;;;;;;;5.51;82.50;95877.84;5115342;28;20643;-68
2021/12/28 03:40:09;;;;;;;9.80;3.83;;;;;;;5.49;81.24;95880.47;5115291;28;20030;-61
2021/12/28 03:42:35;;;;;;;5.88;4.45;;;;;;;5.43;81.25;95875.44;5115230;28;20035;-68
2021/12/28 03:45:00;;;;;;;7.32;4.38;;;;;;;5.30;81.20;95868.00;5115078;28;20411;-64
2021/12/28 03:47:26;;;;;;;11.13;4.72;;;;;;;5.16;82.19;95876.19;5115131;28;20026;-68
2021/12/28 03:49:52;;;;;;;8.02;4.85;;;;;;;5.12;83.18;95864.16;5114177;28;20019;-64
2021/12/28 03:52:17;;;;;;;5.70;4.25;;;;;;;5.12;84.19;95877.13;5115030;28;20026;-64
2021/12/28 03:54:43;;;;;;;6.65;4.95;;;;;;;5.14;84.67;95879.69;5115060;28;20368;-69
2021/12/28 03:57:09;;;;;;;6.65;4.82;;;;;;;5.13;84.33;95877.97;5114912;28;20031;-63
2021/12/28 03:59:35;;;;;;;8.65;3.92;;;;;;;5.08;84.26;95888.47;5114895;28;20020;-67
2021/12/28 04:02:01;;;;;;;8.55;3.80;;;;;;;5.08;83.90;95878.09;5114837;28;20088;-70
2021/12/28 04:04:26;;;;;;;4.93;3.10;;;;;;;5.11;83.24;95882.34;5114788;28;20464;-67
2021/12/28 04:06:52;;;;;;;8.73;4.90;;;;;;;5.12;83.13;95886.66;5114743;28;20023;-66
2021/12/28 04:09:23;;;;;;;8.85;4.13;;;;;;;5.13;83.18;95886.63;5114635;28;20089;-67
2021/12/28 04:11:49;;;;;;;11.45;4.90;;;;;;;5.13;83.17;95886.63;5114740;28;20389;-67
2021/12/28 04:14:15;;;;;;;6.57;3.47;;;;;;;5.17;82.51;95892.56;5114548;28;20028;-64
2021/12/28 04:16:41;;;;;;;5.78;3.55;;;;;;;5.11;82.15;95891.00;5114528;28;20051;-68
2021/12/28 04:19:07;;;;;;;5.57;4.50;;;;;;;5.08;82.62;95896.25;5114525;28;20499;-67
2021/12/28 04:21:35;;;;;;;5.88;3.38;;;;;;;5.06;82.54;95890.28;5114579;28;20397;-64
2021/12/28 04:24:01;;;;;;;7.50;5.78;;;;;;;5.04;82.48;95895.50;5114122;28;20069;-65
2021/12/28 04:26:28;;;;;;;5.72;3.78;;;;;;;4.99;83.18;95889.56;5114321;28;20362;-64
2021/12/28 04:28:55;;;;;;;8.63;4.10;;;;;;;5.00;83.56;95899.03;5114410;28;20492;-66
2021/12/28 04:31:21;;;;;;;6.38;4.25;;;;;;;5.05;84.02;95894.59;5114387;28;20020;-64
2021/12/28 04:33:47;;;;;;;6.35;3.88;;;;;;;5.08;83.48;95904.03;5114220;28;20050;-60
2021/12/28 04:36:15;;;;;;;6.50;4.03;;;;;;;5.06;83.19;95903.25;5114161;28;20477;-65
2021/12/28 04:38:43;;;;;;;6.55;4.70;;;;;;;5.10;83.20;95904.00;5114190;28;20099;-71
2021/12/28 04:41:10;;;;;;;8.43;4.78;;;;;;;5.02;83.47;95910.22;5114112;28;20035;-60
2021/12/28 04:43:37;;;;;;;8.10;4.50;;;;;;;4.99;83.82;95902.53;5114072;28;20053;-67
2021/12/28 04:46:04;;;;;;;5.15;3.20;;;;;;;5.00;83.81;95904.22;5113941;28;20031;-68
2021/12/28 04:48:33;;;;;;;5.50;3.33;;;;;;;5.03;83.39;95898.13;5114073;28;20381;-71
2021/12/28 04:50:59;;;;;;;4.95;4.43;;;;;;;4.97;83.90;95904.31;5113917;28;20020;-64
2021/12/28 04:53:26;;;;;;;6.18;4.28;;;;;;;4.89;84.78;95901.06;5113873;28;20023;-64
2021/12/28 04:55:52;;;;;;;5.85;4.32;;;;;;;4.86;85.09;95901.16;5113969;28;20028;-64
2021/12/28 04:58:18;;;;;;;11.32;5.03;;;;;;;4.93;85.16;95900.97;5113856;28;20103;-71
2021/12/28 05:00:46;;;;;;;5.78;3.92;;;;;;;4.98;85.01;95899.97;5113459;28;20525;-68
2021/12/28 05:03:12;;;;;;;8.20;4.03;;;;;;;4.97;84.80;95895.69;5113808;28;20473;-70
2021/12/28 05:05:44;;;;;;;4.30;3.25;;;;;;;4.99;84.93;95902.53;5113666;28;20030;-67
2021/12/28 05:08:11;;;;;;;9.35;4.63;;;;;;;5.03;84.86;95896.38;5113717;28;20024;-65
2021/12/28 05:10:37;;;;;;;6.93;4.72;;;;;;;5.08;84.84;95908.38;5113636;28;20481;-68
2021/12/28 05:13:03;;;;;;;9.27;4.95;;;;;;;5.12;85.07;95908.25;5113588;28;20034;-64
2021/12/28 05:15:29;;;;;;;8.15;5.35;;;;;;;5.13;84.95;95912.56;5113595;28;20024;-69
2021/12/28 05:17:55;;;;;;;6.90;4.65;;;;;;;5.17;85.17;95908.97;5113724;28;20035;-66
2021/12/28 05:20:21;;;;;;;11.20;5.85;;;;;;;5.21;84.86;95909.72;5112323;28;20020;-64
2021/12/28 05:22:46;;;;;;;10.98;6.60;;;;;;;5.24;84.66;95912.25;5113561;28;20030;-71
2021/12/28 05:25:12;;;;;;;6.78;4.85;;;;;;;5.21;84.49;95920.09;5113390;28;20039;-66
2021/12/28 05:27:37;;;;;;;9.40;6.85;;;;;;;5.22;83.97;95919.25;5113640;28;20422;-69
2021/12/28 05:30:07;;;;;;;7.22;3.97;;;;;;;5.16;84.11;95916.81;5113454;28;20019;-65
2021/12/28 05:32:32;;;;;;;6.40;4.50;;;;;;;5.12;84.25;95918.59;5113441;28;20027;-68
2021/12/28 05:34:58;;;;;;;9.05;5.90;;;;;;;5.17;84.48;95919.34;5113433;28;20373;-69
2021/12/28 05:37:24;;;;;;;11.60;5.15;;;;;;;5.22;84.53;95927.00;5113573;28;20039;-64
2021/12/28 05:39:50;;;;;;;11.68;7.05;;;;;;;5.16;84.19;95925.44;5113445;28;20358;-67
2021/12/28 05:42:15;;;;;;;12.90;6.88;;;;;;;5.24;84.42;95932.16;5113345;28;20024;-66
2021/12/28 05:44:41;;;;;;;13.20;5.93;;;;;;;5.26;85.01;95930.34;5113438;28;20076;-61
2021/12/28 05:47:07;;;;;;;16.50;8.45;;;;;;;5.34;85.01;95936.22;5113276;28;20377;-67
2021/12/28 05:49:32;;;;;;;16.48;10.60;;;;;;;5.37;84.74;95937.88;5113255;28;20182;-64
2021/12/28 05:51:58;;;;;;;6.47;5.30;;;;;;;5.35;84.77;95934.44;5113343;28;20024;-66
2021/12/28 05:54:24;;;;;;;9.90;5.40;;;;;;;5.36;84.76;95930.97;5113253;28;20469;-61
2021/12/28 05:56:49;;;;;;;9.20;3.67;;;;;;;5.38;84.57;95934.38;5113242;28;20019;-65
2021/12/28 05:59:15;;;;;;;9.15;5.75;;;;;;;5.31;84.88;95934.56;5113093;28;20023;-68
2021/12/28 06:01:41;;;;;;;11.88;4.53;;;;;;;5.34;84.88;95930.16;5113220;28;20161;-66
2021/12/28 06:04:07;;;;;;;10.05;4.50;;;;;;;5.34;85.39;95943.13;5113177;28;20046;-67
2021/12/28 06:06:33;;;;;;;8.43;5.55;;;;;;;5.42;85.29;95952.41;5113182;28;20106;-69
2021/12/28 06:08:59;;;;;;;7.63;5.80;;;;;;;5.48;85.37;95946.19;5113222;28;20509;-65
2021/12/28 06:11:25;;;;;;;9.95;6.68;;;;;;;5.50;84.91;95943.56;5113290;28;20537;-70
2021/12/28 06:13:51;;;;;;;10.98;6.93;;;;;;;5.49;84.75;95947.91;5115719;28;20385;-66
2021/12/28 06:16:16;;;;;;;14.02;8.05;;;;;;;5.51;85.20;95948.72;5116950;28;20081;-66
2021/12/28 06:18:43;;;;;;;19.00;7.65;;;;;;;5.60;85.39;95951.97;5116976;28;20035;-68
2021/12/28 06:21:08;;;;;;;13.82;8.57;;;;;;;5.64;85.05;95957.03;5116821;28;20051;-65
2021/12/28 06:23:34;;;;;;;18.48;11.32;;;;;;;5.70;85.24;95950.81;5116476;28;20078;-64
2021/12/28 06:26:03;;;;;;;40.28;25.27;;;;;;;5.76;85.79;95953.25;5116774;28;20066;-68
2021/12/28 06:28:29;;;;;;;23.95;14.40;;;;;;;5.80;85.70;95943.59;5116774;28;20028;-66
2021/12/28 06:30:55;;;;;;;6.15;5.05;;;;;;;5.93;85.89;95952.75;5116625;28;20031;-67
2021/12/28 06:33:22;;;;;;;6.65;5.03;;;;;;;6.01;85.83;95947.34;5116444;28;20035;-61
2021/12/28 06:35:49;;;;;;;10.75;8.55;;;;;;;6.13;85.89;95955.69;5116495;28;20064;-68
2021/12/28 06:38:16;;;;;;;15.88;9.10;;;;;;;6.22;85.93;95952.81;5116524;28;20072;-66
2021/12/28 06:40:42;;;;;;;10.30;6.93;;;;;;;6.33;85.54;95952.50;5116541;28;20020;-70
2021/12/28 06:43:08;;;;;;;12.23;6.38;;;;;;;6.42;85.44;95949.59;5116498;28;20035;-65
2021/12/28 06:45:34;;;;;;;10.65;5.93;;;;;;;6.58;86.19;95956.94;5116286;28;20160;-61
2021/12/28 06:48:01;;;;;;;7.93;6.80;;;;;;;6.70;86.07;95964.34;5116180;28;20373;-67
2021/12/28 06:50:26;;;;;;;9.82;7.70;;;;;;;6.79;85.85;95958.00;5116394;28;20027;-69
2021/12/28 06:52:52;;;;;;;8.85;7.35;;;;;;;6.91;85.48;95956.75;5116227;28;20031;-64
2021/12/28 06:55:17;;;;;;;11.60;8.88;;;;;;;7.02;85.22;95964.22;5116257;28;20435;-66
2021/12/28 06:57:43;;;;;;;19.02;7.13;;;;;;;7.11;85.04;95964.78;5116012;28;20020;-66
2021/12/28 07:00:13;;;;;;;8.82;5.85;;;;;;;7.20;84.01;95961.88;5116052;28;20066;-63
2021/12/28 07:02:39;;;;;;;13.75;7.07;;;;;;;7.25;84.02;95969.53;5116008;27;20027;-62
2021/12/28 07:05:06;;;;;;;13.43;5.82;;;;;;;7.35;83.71;95968.31;5116099;28;20035;-63
2021/12/28 07:07:32;;;;;;;10.10;5.80;;;;;;;7.41;83.24;95962.06;5116011;28;20020;-70
2021/12/28 07:09:58;;;;;;;11.75;6.63;;;;;;;7.45;83.31;95958.44;5115957;28;20416;-66
2021/12/28 07:12:23;;;;;;;11.05;7.22;;;;;;;7.59;83.97;95961.41;5115586;28;20027;-68
2021/12/28 07:14:49;;;;;;;16.60;5.70;;;;;;;7.81;84.09;95965.00;5115759;28;20024;-70
2021/12/28 07:17:14;;;;;;;8.73;5.70;;;;;;;7.96;83.26;95959.25;5115707;28;20104;-65
2021/12/28 07:19:40;;;;;;;7.50;4.93;;;;;;;8.24;83.38;95961.72;5115629;28;20027;-66
2021/12/28 07:22:06;;;;;;;6.47;4.53;;;;;;;8.85;81.54;95947.19;5115762;28;20032;-68
2021/12/28 07:24:31;;;;;;;5.95;3.70;;;;;;;9.42;79.84;95953.59;5115235;28;20506;-67
2021/12/28 07:26:57;;;;;;;6.22;4.38;;;;;;;9.95;77.83;95954.75;5115570;28;20027;-64
2021/12/28 07:29:23;;;;;;;5.45;3.88;;;;;;;10.11;76.73;95954.91;5115499;28;20035;-63
2021/12/28 07:31:50;;;;;;;5.90;4.15;;;;;;;10.36;76.44;95952.94;5115462;28;20068;-62
2021/12/28 07:34:15;;;;;;;7.10;4.45;;;;;;;11.05;73.73;95953.19;5115242;28;20020;-70
2021/12/28 07:36:42;;;;;;;4.72;3.33;;;;;;;11.42;71.86;95953.13;5115307;28;20028;-67
2021/12/28 07:39:08;;;;;;;9.52;4.38;;;;;;;11.59;71.49;95959.28;5115338;28;20023;-68
2021/12/28 07:41:34;;;;;;;7.03;4.03;;;;;;;11.63;70.71;95953.78;5115414;28;20022;-64
2021/12/28 07:44:00;;;;;;;5.50;3.55;;;;;;;11.61;70.31;95952.16;5115289;28;20027;-63
2021/12/28 07:46:25;;;;;;;10.07;4.00;;;;;;;11.53;70.24;95956.97;5115187;28;20027;-65
2021/12/28 07:48:51;;;;;;;5.22;3.72;;;;;;;11.41;70.09;95958.44;5115164;28;20099;-71
2021/12/28 07:51:17;;;;;;;4.63;3.38;;;;;;;11.33;70.08;95951.81;5115032;28;20026;-68
2021/12/28 07:53:43;;;;;;;6.30;3.80;;;;;;;11.28;70.18;95952.94;5114913;28;20102;-68
2021/12/28 07:56:09;;;;;;;6.32;4.15;;;;;;;11.21;70.25;95953.28;5115152;28;20059;-65
2021/12/28 07:58:35;;;;;;;8.77;5.07;;;;;;;11.55;70.49;95950.72;5114867;28;20453;-66
2021/12/28 08:01:00;;;;;;;9.35;4.53;;;;;;;12.51;67.87;95944.84;5114797;28;20020;-67
2021/12/28 08:03:26;;;;;;;8.02;4.18;;;;;;;13.89;63.41;95950.16;5114833;28;20549;-70
2021/12/28 08:05:53;;;;;;;3.83;3.42;;;;;;;15.65;58.47;95952.19;5114732;28;20047;-69
2021/12/28 08:08:19;;;;;;;4.20;3.35;;;;;;;17.33;53.88;95948.44;5114685;28;20099;-69
2021/12/28 08:10:45;;;;;;;3.08;2.75;;;;;;;18.98;49.74;95948.13;5114572;27;20031;-61
2021/12/28 08:13:11;;;;;;;4.28;3.20;;;;;;;20.26;45.65;95956.16;5114565;28;20035;-69
2021/12/28 08:15:37;;;;;;;6.20;3.40;;;;;;;21.02;43.80;95949.56;5114471;28;20016;-69
2021/12/28 08:18:05;;;;;;;6.78;3.50;;;;;;;22.02;41.92;95951.16;5114676;28;20099;-61
2021/12/28 08:20:31;;;;;;;4.75;4.13;;;;;;;23.26;39.17;95950.97;5114395;28;20020;-65
2021/12/28 08:22:57;;;;;;;12.35;7.90;;;;;;;23.40;38.36;95949.63;5114324;28;20023;-66
2021/12/28 08:25:23;;;;;;;8.20;5.25;;;;;;;23.54;37.58;95948.22;5114102;28;20051;-73
2021/12/28 08:27:50;;;;;;;7.13;4.63;;;;;;;24.54;36.33;95945.34;5114277;28;20028;-67
2021/12/28 08:30:18;;;;;;;6.97;4.65;;;;;;;25.07;34.54;95942.53;5114300;28;20103;-66
2021/12/28 08:32:44;;;;;;;6.43;4.10;;;;;;;25.11;34.66;95943.88;5114289;28;20129;-63
2021/12/28 08:35:10;;;;;;;5.40;4.10;;;;;;;24.74;36.31;95937.88;5113547;28;20100;-66
2021/12/28 08:37:36;;;;;;;6.93;4.82;;;;;;;24.09;36.51;95938.28;5114222;28;20020;-68
2021/12/28 08:40:03;;;;;;;7.18;6.30;;;;;;;23.16;38.21;95939.53;5114105;28;20123;-74
2021/12/28 08:42:29;;;;;;;7.72;6.30;;;;;;;22.65;39.36;95937.34;5114082;28;20056;-64
2021/12/28 08:44:55;;;;;;;5.72;5.10;;;;;;;22.01;40.72;95938.00;5114125;28;20103;-66
2021/12/28 08:47:26;;;;;;;5.70;5.05;;;;;;;21.81;41.31;95940.69;5113893;28;20068;-74
2021/12/28 08:49:52;;;;;;;7.72;5.20;;;;;;;21.69;42.11;95940.84;5113886;28;20107;-70
2021/12/28 08:52:18;;;;;;;8.07;4.90;;;;;;;21.49;42.81;95939.19;5113945;28;20055;-69
2021/12/28 08:54:44;;;;;;;8.20;5.43;;;;;;;20.62;45.14;95939.78;5113808;28;20016;-63
2021/12/28 08:57:09;;;;;;;7.68;4.70;;;;;;;19.36;47.54;95941.53;5113883;28;20122;-67
2021/12/28 08:59:35;;;;;;;9.65;4.95;;;;;;;18.61;48.96;95936.06;5113874;28;20028;-63
2021/12/28 09:02:02;;;;;;;6.30;4.75;;;;;;;18.43;49.18;95926.81;5113762;28;20443;-69
2021/12/28 09:04:28;;;;;;;8.23;5.28;;;;;;;18.63;49.67;95929.66;5113700;28;20022;-63
2021/12/28 09:06:53;;;;;;;8.25;5.30;;;;;;;18.53;49.76;95926.94;5113826;28;20028;-67
2021/12/28 09:09:20;;;;;;;6.35;4.93;;;;;;;18.17;49.98;95913.84;5113787;28;20080;-68
2021/12/28 09:11:48;;;;;;;7.03;4.97;;;;;;;17.72;50.92;95919.06;5113701;28;20043;-67
2021/12/28 09:14:14;;;;;;;6.82;4.90;;;;;;;17.02;53.48;95915.41;5113433;28;20054;-63
2021/12/28 09:16:39;;;;;;;9.55;4.97;;;;;;;16.33;55.80;95921.22;5113486;28;20465;-66
2021/12/28 09:19:05;;;;;;;7.82;5.45;;;;;;;16.00;56.47;95923.50;5113625;28;20027;-66
2021/12/28 09:21:31;;;;;;;9.85;5.28;;;;;;;15.80;57.16;95912.53;5113631;28;20024;-64
2021/12/28 09:23:56;;;;;;;6.30;5.32;;;;;;;15.60;57.76;95916.53;5113382;28;20386;-69
2021/12/28 09:26:22;;;;;;;8.57;5.50;;;;;;;15.46;58.67;95915.69;5112380;28;20374;-65
2021/12/28 09:28:49;;;;;;;8.18;5.93;;;;;;;15.29;60.12;95916.81;5113576;28;20366;-64
2021/12/28 09:31:15;;;;;;;8.65;5.95;;;;;;;14.94;61.24;95909.47;5113460;28;20027;-62
2021/12/28 09:33:41;;;;;;;6.90;5.20;;;;;;;14.61;61.10;95912.41;5113459;28;20098;-63
2021/12/28 09:36:09;;;;;;;6.88;6.00;;;;;;;14.27;63.08;95910.09;5113317;28;20016;-64
2021/12/28 09:38:35;;;;;;;7.93;6.70;;;;;;;14.19;63.72;95901.00;5113299;28;20450;-64
2021/12/28 09:41:02;;;;;;;11.43;6.63;;;;;;;13.98;64.04;95899.66;5113315;28;20043;-67
2021/12/28 09:43:27;;;;;;;7.25;5.80;;;;;;;13.84;64.00;95897.84;5113260;28;20015;-64
2021/12/28 09:45:53;;;;;;;8.38;6.43;;;;;;;13.80;65.13;95900.75;5113447;28;20031;-64
2021/12/28 09:48:19;;;;;;;7.60;5.28;;;;;;;13.80;64.07;95893.72;5116729;28;20481;-67
2021/12/28 09:50:45;;;;;;;8.57;5.30;;;;;;;13.82;64.02;95891.84;5117361;28;20687;-60
2021/12/28 09:53:16;;;;;;;8.65;4.90;;;;;;;13.87;63.31;95891.56;5117248;28;20027;-66
2021/12/28 09:55:42;;;;;;;11.13;6.20;;;;;;;13.75;62.65;95890.53;5117360;28;20035;-64
2021/12/28 09:58:09;;;;;;;7.65;5.90;;;;;;;13.68;63.55;95895.31;5117316;28;20032;-68
2021/12/28 10:00:36;;;;;;;14.40;5.35;;;;;;;13.71;62.47;95878.50;5117270;28;20035;-64
2021/12/28 10:03:02;;;;;;;9.35;6.30;;;;;;;13.79;63.19;95886.78;5117113;28;20022;-65
2021/12/28 10:05:29;;;;;;;10.93;6.50;;;;;;;13.77;64.99;95884.25;5117136;28;20111;-65
2021/12/28 10:07:57;;;;;;;6.30;3.92;;;;;;;13.88;62.56;95883.56;5117170;28;20414;-67
2021/12/28 10:10:29;;;;;;;7.93;4.68;;;;;;;13.86;62.71;95882.00;5117125;28;20035;-70
2021/12/28 10:12:58;;;;;;;5.57;3.88;;;;;;;13.94;60.54;95876.25;5116960;28;20057;-64
2021/12/28 10:15:27;;;;;;;6.95;4.88;;;;;;;14.03;60.64;95873.06;5117106;27;20036;-67
2021/12/28 10:17:57;;;;;;;7.88;4.60;;;;;;;13.99;59.67;95867.16;5116936;28;20023;-67
2021/12/28 10:20:27;;;;;;;4.15;3.05;;;;;;;13.93;59.53;95862.25;5117024;27;20030;-70
2021/12/28 10:22:58;;;;;;;6.87;4.63;;;;;;;13.97;61.12;95862.94;5116859;28;20036;-66
2021/12/28 10:25:30;;;;;;;7.35;4.60;;;;;;;13.96;60.71;95862.06;5116551;28;20271;-66
2021/12/28 10:28:03;;;;;;;5.78;4.35;;;;;;;13.95;59.98;95855.13;5116847;28;20027;-61
2021/12/28 10:30:32;;;;;;;7.97;4.80;;;;;;;14.01;61.50;95853.91;5116747;28;20024;-64
2021/12/28 10:33:07;;;;;;;11.18;5.32;;;;;;;14.06;60.50;95854.44;5116596;28;20030;-66
2021/12/28 10:35:36;;;;;;;6.93;3.90;;;;;;;14.12;59.07;95851.44;5116526;27;20024;-66
2021/12/28 10:38:09;;;;;;;6.60;4.55;;;;;;;14.13;61.15;95849.66;5116586;28;20073;-64
2021/12/28 10:40:45;;;;;;;7.60;4.68;;;;;;;14.20;60.13;95844.84;5116448;28;20032;-65
2021/12/28 10:43:18;;;;;;;7.57;4.97;;;;;;;14.19;60.95;95841.38;5116337;28;20497;-61
2021/12/28 10:45:48;;;;;;;6.45;4.00;;;;;;;14.20;60.98;95836.94;5116350;28;20055;-66
2021/12/28 10:48:28;;;;;;;6.80;4.50;;;;;;;14.25;60.16;95837.50;5116349;28;20107;-60
2021/12/28 10:51:03;;;;;;;6.25;4.18;;;;;;;14.35;59.48;95838.59;5116297;28;20035;-65
2021/12/28 10:53:40;;;;;;;7.07;4.88;;;;;;;14.33;59.33;95839.66;5116176;28;20034;-65
2021/12/28 10:56:09;;;;;;;6.32;3.88;;;;;;;14.38;58.15;95833.16;5116302;27;20080;-67
2021/12/28 10:58:44;;;;;;;7.07;4.22;;;;;;;14.42;57.52;95835.59;5115624;28;20427;-63
2021/12/28 11:01:19;;;;;;;8.23;4.35;;;;;;;14.42;59.25;95828.50;5116326;28;20106;-67
2021/12/28 11:03:48;;;;;;;8.07;4.78;;;;;;;14.31;60.33;95831.84;5116050;28;20389;-61
2021/12/28 11:06:26;;;;;;;5.72;4.45;;;;;;;14.36;60.34;95832.38;5115997;28;20016;-62
2021/12/28 11:08:54;;;;;;;8.57;4.75;;;;;;;14.27;58.95;95831.19;5115946;28;20019;-67
2021/12/28 11:11:22;;;;;;;9.95;5.45;;;;;;;14.16;60.02;95831.06;5115905;27;20027;-64
2021/12/28 11:13:52;;;;;;;8.00;5.88;;;;;;;14.22;60.89;95828.03;5115653;28;20024;-64
2021/12/28 11:16:19;;;;;;;8.80;6.05;;;;;;;14.21;60.23;95828.97;5115730;28;20027;-67
2021/12/28 11:18:47;;;;;;;11.45;8.30;;;;;;;14.12;62.00;95827.75;5115701;28;20063;-66
2021/12/28 11:21:25;;;;;;;12.63;8.75;;;;;;;14.17;62.86;95830.09;5115730;28;20057;-69
2021/12/28 11:24:03;;;;;;;13.18;8.52;;;;;;;14.10;62.41;95827.03;5115477;28;20074;-65
2021/12/28 11:26:37;;;;;;;11.48;7.70;;;;;;;14.09;62.53;95827.13;5114251;28;20101;-67
2021/12/28 11:29:21;;;;;;;13.30;8.80;;;;;;;14.11;63.11;95830.47;5115709;28;20084;-66
2021/12/28 11:31:55;;;;;;;15.75;10.50;;;;;;;14.04;63.29;95819.53;5115563;28;20020;-64
2021/12/28 11:34:24;;;;;;;19.02;12.98;;;;;;;14.01;63.91;95823.22;5115432;28;20362;-67
2021/12/28 11:36:54;;;;;;;21.83;13.50;;;;;;;14.02;64.14;95819.63;5115371;28;20055;-63
2021/12/28 11:39:27;;;;;;;22.23;14.63;;;;;;;14.07;64.56;95819.34;5114062;28;20487;-63